Aviation Digital Data Service (ADDS)

Output produced by TAFs form (1920 UTC 21 April 2018)
found at http://aviationweather.gov/adds/tafs/
 
METAR text: RJOH 211900Z 17004KT 9999 SCT/// 11/08 Q1019
Conditions at: RJOH (MIHO (CIV/JASDF), JP) observed 1900 UTC 21 April 2018
Temperature: 11.0°C (52°F)
Dewpoint: 8.0°C (46°F) [RH = 82%]
Pressure (altimeter): 30.09 inches Hg (1019.0 mb)
Winds: from the S (170 degrees) at 5 MPH (4 knots; 2.1 m/s)
Visibility: 6 or more miles (10+ km)
Ceiling: unknown
Clouds: missing
Weather: no significant weather observed at this time

Forecast for: RJOH (MIHO (CIV/JASDF), JP)
Text: TAF RJOH 211708Z 2118/2300 22006KT 9999 FEW030
Forecast period: 1800 UTC 21 April 2018 to 0200 UTC 22 April 2018
Forecast type: FROM: standard forecast or significant change
Winds: from the SW (220 degrees) at 7 MPH (6 knots; 3.1 m/s)
Visibility: 6 or more miles (10+ km)
Clouds: few clouds at 3000 feet AGL
Weather: no significant weather forecast for this period
Forecast for: RJOH (MIHO (CIV/JASDF), JP)
Text: TAF RJOH 211708Z 2118/2300 22006KT 9999 FEW030
Forecast period: 1800 UTC 21 April 2018 to 0200 UTC 22 April 2018
Forecast type: FROM: standard forecast or significant change
Winds: from the SW (220 degrees) at 7 MPH (6 knots; 3.1 m/s)
Visibility: 6 or more miles (10+ km)
Clouds: few clouds at 3000 feet AGL
Weather: no significant weather forecast for this period
Forecast for: RJOH (MIHO (CIV/JASDF), JP)
Text: TAF RJOH 211708Z 2118/2300 22006KT 9999 FEW030
Forecast period: 0200 to 1200 UTC 22 April 2018
Forecast type: BECOMING: Conditions expected to become as follows by 0400 UTC 22 April 2018
Winds: from the NNW (340 degrees) at 6 MPH (5 knots; 2.6 m/s)
Visibility: 6 or more miles (10+ km)
Clouds: few clouds at 3000 feet AGL
Weather: no significant weather forecast for this period
Forecast for: RJOH (MIHO (CIV/JASDF), JP)
Text: TAF RJOH 211708Z 2118/2300 22006KT 9999 FEW030
Forecast period: 0200 to 1200 UTC 22 April 2018
Forecast type: BECOMING: Conditions expected to become as follows by 0400 UTC 22 April 2018
Winds: from the NNW (340 degrees) at 6 MPH (5 knots; 2.6 m/s)
Visibility: 6 or more miles (10+ km)
Clouds: few clouds at 3000 feet AGL
Weather: no significant weather forecast for this period
Forecast for: RJOH (MIHO (CIV/JASDF), JP)
Text: TAF RJOH 211708Z 2118/2300 22006KT 9999 FEW030
Forecast period: 1200 UTC 22 April 2018 to 0000 UTC 23 April 2018
Forecast type: BECOMING: Conditions expected to become as follows by 1500 UTC 22 April 2018
Winds: from the SSE (160 degrees) at 5 MPH (4 knots; 2.1 m/s)
Visibility: 6 or more miles (10+ km)
Clouds: few clouds at 3000 feet AGL
Weather: no significant weather forecast for this period
Forecast for: RJOH (MIHO (CIV/JASDF), JP)
Text: TAF RJOH 211708Z 2118/2300 22006KT 9999 FEW030
Forecast period: 1200 UTC 22 April 2018 to 0000 UTC 23 April 2018
Forecast type: BECOMING: Conditions expected to become as follows by 1500 UTC 22 April 2018
Winds: from the SSE (160 degrees) at 5 MPH (4 knots; 2.1 m/s)
Visibility: 6 or more miles (10+ km)
Clouds: few clouds at 3000 feet AGL
Weather: no significant weather forecast for this period
Forecast for: RJOH (MIHO (CIV/JASDF), JP)
Text: TAF RJOH 211708Z 2118/2300 22006KT 9999 FEW030
Forecast period: 1800 UTC 22 April 2018 to 0000 UTC 23 April 2018
Forecast type: TEMPORARY: The following changes expected for less than half the time period
Visibility: 1.24 miles (2.00 km)
Ceiling: 900 feet AGL
Clouds: few clouds at 0 feet AGL
scattered clouds at 500 feet AGL
broken clouds at 900 feet AGL
Weather: BR BCFG  (mist, patches of fog)
Forecast for: RJOH (MIHO (CIV/JASDF), JP)
Text: TAF RJOH 211708Z 2118/2300 22006KT 9999 FEW030
Forecast period: 1800 UTC 22 April 2018 to 0000 UTC 23 April 2018
Forecast type: TEMPORARY: The following changes expected for less than half the time period
Visibility: 1.24 miles (2.00 km)
Ceiling: 900 feet AGL
Clouds: few clouds at 0 feet AGL
scattered clouds at 500 feet AGL
broken clouds at 900 feet AGL
Weather: BR BCFG  (mist, patches of fog)